sensor_id;sensor_type;location;lat;lon;timestamp;temperature;humidity
24522;DHT22;12680;57.804;12.190;2022-09-09T00:01:51;11.40;97.00
24522;DHT22;12680;57.804;12.190;2022-09-09T00:09:39;11.30;97.10
24522;DHT22;12680;57.804;12.190;2022-09-09T00:17:49;11.20;97.10
24522;DHT22;12680;57.804;12.190;2022-09-09T00:23:17;11.10;97.20
24522;DHT22;12680;57.804;12.190;2022-09-09T00:31:30;11.10;97.30
24522;DHT22;12680;57.804;12.190;2022-09-09T00:34:19;11.10;97.40
24522;DHT22;12680;57.804;12.190;2022-09-09T00:36:52;11.00;97.40
24522;DHT22;12680;57.804;12.190;2022-09-09T00:39:39;11.10;97.40
24522;DHT22;12680;57.804;12.190;2022-09-09T00:42:25;11.10;97.40
24522;DHT22;12680;57.804;12.190;2022-09-09T00:47:49;11.00;97.40
24522;DHT22;12680;57.804;12.190;2022-09-09T00:53:41;11.10;97.50
24522;DHT22;12680;57.804;12.190;2022-09-09T00:56:20;11.10;97.70
24522;DHT22;12680;57.804;12.190;2022-09-09T00:59:03;11.10;97.60
24522;DHT22;12680;57.804;12.190;2022-09-09T01:01:38;11.10;97.60
24522;DHT22;12680;57.804;12.190;2022-09-09T01:04:13;11.10;97.60
24522;DHT22;12680;57.804;12.190;2022-09-09T01:06:46;11.10;97.80
24522;DHT22;12680;57.804;12.190;2022-09-09T01:09:50;11.10;97.70
24522;DHT22;12680;57.804;12.190;2022-09-09T01:12:36;11.10;97.80
24522;DHT22;12680;57.804;12.190;2022-09-09T01:15:28;11.10;98.10
24522;DHT22;12680;57.804;12.190;2022-09-09T01:18:10;11.10;97.80
24522;DHT22;12680;57.804;12.190;2022-09-09T01:23:45;11.10;97.90
24522;DHT22;12680;57.804;12.190;2022-09-09T01:26:29;11.10;97.90
24522;DHT22;12680;57.804;12.190;2022-09-09T01:28:57;11.10;97.90
24522;DHT22;12680;57.804;12.190;2022-09-09T01:31:34;11.10;97.90
24522;DHT22;12680;57.804;12.190;2022-09-09T01:34:13;11.00;97.90
24522;DHT22;12680;57.804;12.190;2022-09-09T01:37:07;11.00;98.00
24522;DHT22;12680;57.804;12.190;2022-09-09T01:39:38;11.00;98.00
24522;DHT22;12680;57.804;12.190;2022-09-09T01:42:09;11.00;98.00
24522;DHT22;12680;57.804;12.190;2022-09-09T01:44:37;10.90;98.10
24522;DHT22;12680;57.804;12.190;2022-09-09T01:47:08;10.90;98.10
24522;DHT22;12680;57.804;12.190;2022-09-09T01:49:36;10.90;98.20
24522;DHT22;12680;57.804;12.190;2022-09-09T01:52:04;10.90;98.20
24522;DHT22;12680;57.804;12.190;2022-09-09T01:54:35;10.80;98.20
24522;DHT22;12680;57.804;12.190;2022-09-09T01:57:18;10.80;98.30
24522;DHT22;12680;57.804;12.190;2022-09-09T02:00:08;10.80;98.30
24522;DHT22;12680;57.804;12.190;2022-09-09T02:10:53;10.80;98.50
24522;DHT22;12680;57.804;12.190;2022-09-09T02:13:22;10.80;98.60
24522;DHT22;12680;57.804;12.190;2022-09-09T02:15:56;10.80;98.50
24522;DHT22;12680;57.804;12.190;2022-09-09T02:18:30;10.80;98.60
24522;DHT22;12680;57.804;12.190;2022-09-09T02:21:08;10.80;98.60
24522;DHT22;12680;57.804;12.190;2022-09-09T02:23:39;10.80;98.70
24522;DHT22;12680;57.804;12.190;2022-09-09T02:26:12;10.80;98.70
24522;DHT22;12680;57.804;12.190;2022-09-09T02:28:51;10.80;98.70
24522;DHT22;12680;57.804;12.190;2022-09-09T02:31:22;10.80;98.80
24522;DHT22;12680;57.804;12.190;2022-09-09T02:33:55;10.80;98.80
24522;DHT22;12680;57.804;12.190;2022-09-09T02:36:30;10.80;98.80
24522;DHT22;12680;57.804;12.190;2022-09-09T02:39:01;10.80;98.90
24522;DHT22;12680;57.804;12.190;2022-09-09T02:41:34;10.80;98.80
24522;DHT22;12680;57.804;12.190;2022-09-09T02:44:09;10.80;98.90
24522;DHT22;12680;57.804;12.190;2022-09-09T02:52:08;10.80;99.00
24522;DHT22;12680;57.804;12.190;2022-09-09T02:54:38;10.80;99.10
24522;DHT22;12680;57.804;12.190;2022-09-09T02:57:25;10.80;99.00
24522;DHT22;12680;57.804;12.190;2022-09-09T02:59:58;10.80;99.10
24522;DHT22;12680;57.804;12.190;2022-09-09T03:02:26;10.80;99.00
24522;DHT22;12680;57.804;12.190;2022-09-09T03:04:58;10.80;99.10
24522;DHT22;12680;57.804;12.190;2022-09-09T03:07:27;10.80;99.10
24522;DHT22;12680;57.804;12.190;2022-09-09T03:09:57;10.80;99.20
24522;DHT22;12680;57.804;12.190;2022-09-09T03:12:26;10.80;99.30
24522;DHT22;12680;57.804;12.190;2022-09-09T03:14:53;10.80;99.20
24522;DHT22;12680;57.804;12.190;2022-09-09T03:17:20;10.80;99.30
24522;DHT22;12680;57.804;12.190;2022-09-09T03:19:48;10.80;99.30
24522;DHT22;12680;57.804;12.190;2022-09-09T03:22:19;10.70;99.40
24522;DHT22;12680;57.804;12.190;2022-09-09T03:24:49;10.70;99.30
24522;DHT22;12680;57.804;12.190;2022-09-09T03:27:18;10.70;99.30
24522;DHT22;12680;57.804;12.190;2022-09-09T03:29:53;10.70;99.30
24522;DHT22;12680;57.804;12.190;2022-09-09T03:32:25;10.70;99.40
24522;DHT22;12680;57.804;12.190;2022-09-09T03:34:53;10.70;99.60
24522;DHT22;12680;57.804;12.190;2022-09-09T03:37:28;10.70;99.50
24522;DHT22;12680;57.804;12.190;2022-09-09T03:39:56;10.70;99.60
24522;DHT22;12680;57.804;12.190;2022-09-09T03:42:25;10.80;99.70
24522;DHT22;12680;57.804;12.190;2022-09-09T03:44:56;10.80;99.70
24522;DHT22;12680;57.804;12.190;2022-09-09T03:47:25;10.80;99.70
24522;DHT22;12680;57.804;12.190;2022-09-09T03:49:56;10.80;99.70
24522;DHT22;12680;57.804;12.190;2022-09-09T03:52:24;10.80;99.70
24522;DHT22;12680;57.804;12.190;2022-09-09T03:54:53;10.90;99.70
24522;DHT22;12680;57.804;12.190;2022-09-09T03:57:26;10.90;99.70
24522;DHT22;12680;57.804;12.190;2022-09-09T03:59:57;10.90;99.70
24522;DHT22;12680;57.804;12.190;2022-09-09T04:02:31;10.90;99.70
24522;DHT22;12680;57.804;12.190;2022-09-09T04:04:59;11.00;99.70
24522;DHT22;12680;57.804;12.190;2022-09-09T04:07:31;11.00;99.70
24522;DHT22;12680;57.804;12.190;2022-09-09T04:10:07;11.00;99.70
24522;DHT22;12680;57.804;12.190;2022-09-09T04:12:35;11.00;99.80
24522;DHT22;12680;57.804;12.190;2022-09-09T04:15:06;11.00;99.80
24522;DHT22;12680;57.804;12.190;2022-09-09T04:17:37;11.00;99.80
24522;DHT22;12680;57.804;12.190;2022-09-09T04:20:06;11.10;99.80
24522;DHT22;12680;57.804;12.190;2022-09-09T04:22:38;11.10;99.70
24522;DHT22;12680;57.804;12.190;2022-09-09T04:25:20;11.10;99.70
24522;DHT22;12680;57.804;12.190;2022-09-09T04:27:54;11.10;99.80
24522;DHT22;12680;57.804;12.190;2022-09-09T04:30:28;11.10;99.80
24522;DHT22;12680;57.804;12.190;2022-09-09T04:32:56;11.20;99.80
24522;DHT22;12680;57.804;12.190;2022-09-09T04:35:26;11.20;99.80
24522;DHT22;12680;57.804;12.190;2022-09-09T04:38:00;11.20;99.80
24522;DHT22;12680;57.804;12.190;2022-09-09T04:40:36;11.30;99.80
24522;DHT22;12680;57.804;12.190;2022-09-09T04:43:08;11.30;99.80
24522;DHT22;12680;57.804;12.190;2022-09-09T04:45:49;11.40;99.80
24522;DHT22;12680;57.804;12.190;2022-09-09T04:48:20;11.40;99.80
24522;DHT22;12680;57.804;12.190;2022-09-09T04:50:57;11.40;99.80
24522;DHT22;12680;57.804;12.190;2022-09-09T04:53:26;11.50;99.80
24522;DHT22;12680;57.804;12.190;2022-09-09T04:56:02;11.50;99.70
24522;DHT22;12680;57.804;12.190;2022-09-09T04:58:36;11.50;99.70
24522;DHT22;12680;57.804;12.190;2022-09-09T05:01:10;11.50;99.70
24522;DHT22;12680;57.804;12.190;2022-09-09T05:03:39;11.60;99.70
24522;DHT22;12680;57.804;12.190;2022-09-09T05:06:12;11.60;99.60
24522;DHT22;12680;57.804;12.190;2022-09-09T05:08:41;11.70;99.60
24522;DHT22;12680;57.804;12.190;2022-09-09T05:11:35;11.70;99.60
24522;DHT22;12680;57.804;12.190;2022-09-09T05:14:05;11.70;99.60
24522;DHT22;12680;57.804;12.190;2022-09-09T05:16:33;11.80;99.60
24522;DHT22;12680;57.804;12.190;2022-09-09T05:19:05;11.80;99.60
24522;DHT22;12680;57.804;12.190;2022-09-09T05:21:34;11.80;99.60
24522;DHT22;12680;57.804;12.190;2022-09-09T05:24:06;11.80;99.50
24522;DHT22;12680;57.804;12.190;2022-09-09T05:26:45;11.80;99.60
24522;DHT22;12680;57.804;12.190;2022-09-09T05:29:15;11.90;99.60
24522;DHT22;12680;57.804;12.190;2022-09-09T05:31:53;11.90;99.50
24522;DHT22;12680;57.804;12.190;2022-09-09T05:34:21;11.90;99.60
24522;DHT22;12680;57.804;12.190;2022-09-09T05:36:50;11.90;99.50
24522;DHT22;12680;57.804;12.190;2022-09-09T05:39:22;12.00;99.60
24522;DHT22;12680;57.804;12.190;2022-09-09T05:41:50;12.10;99.60
24522;DHT22;12680;57.804;12.190;2022-09-09T05:44:18;12.10;99.60
24522;DHT22;12680;57.804;12.190;2022-09-09T05:46:52;12.20;99.50
24522;DHT22;12680;57.804;12.190;2022-09-09T05:49:23;12.30;99.50
24522;DHT22;12680;57.804;12.190;2022-09-09T05:51:53;12.40;99.50
24522;DHT22;12680;57.804;12.190;2022-09-09T05:54:27;12.50;99.50
24522;DHT22;12680;57.804;12.190;2022-09-09T05:56:57;12.50;99.40
24522;DHT22;12680;57.804;12.190;2022-09-09T05:59:31;12.60;99.30
24522;DHT22;12680;57.804;12.190;2022-09-09T06:02:03;12.70;99.20
24522;DHT22;12680;57.804;12.190;2022-09-09T06:04:32;12.70;99.20
24522;DHT22;12680;57.804;12.190;2022-09-09T06:07:08;12.70;99.10
24522;DHT22;12680;57.804;12.190;2022-09-09T06:09:40;12.80;99.10
24522;DHT22;12680;57.804;12.190;2022-09-09T06:12:11;12.90;99.00
24522;DHT22;12680;57.804;12.190;2022-09-09T06:14:44;12.90;99.00
24522;DHT22;12680;57.804;12.190;2022-09-09T06:17:15;13.00;99.00
24522;DHT22;12680;57.804;12.190;2022-09-09T06:19:46;13.00;98.90
24522;DHT22;12680;57.804;12.190;2022-09-09T06:22:21;13.10;98.90
24522;DHT22;12680;57.804;12.190;2022-09-09T06:24:52;13.20;98.90
24522;DHT22;12680;57.804;12.190;2022-09-09T06:27:23;13.30;98.90
24522;DHT22;12680;57.804;12.190;2022-09-09T06:29:54;13.30;98.80
24522;DHT22;12680;57.804;12.190;2022-09-09T06:32:25;13.40;98.80
24522;DHT22;12680;57.804;12.190;2022-09-09T06:34:54;13.50;98.80
24522;DHT22;12680;57.804;12.190;2022-09-09T06:37:21;13.60;98.70
24522;DHT22;12680;57.804;12.190;2022-09-09T06:39:58;13.70;98.70
24522;DHT22;12680;57.804;12.190;2022-09-09T06:42:31;13.90;98.60
24522;DHT22;12680;57.804;12.190;2022-09-09T06:44:58;14.00;98.50
24522;DHT22;12680;57.804;12.190;2022-09-09T06:47:32;14.10;98.30
24522;DHT22;12680;57.804;12.190;2022-09-09T06:50:04;14.10;98.20
24522;DHT22;12680;57.804;12.190;2022-09-09T06:52:36;14.20;98.10
24522;DHT22;12680;57.804;12.190;2022-09-09T06:55:07;14.20;98.10
24522;DHT22;12680;57.804;12.190;2022-09-09T06:57:37;14.20;98.00
24522;DHT22;12680;57.804;12.190;2022-09-09T07:00:06;14.30;98.00
24522;DHT22;12680;57.804;12.190;2022-09-09T07:02:38;14.30;98.00
24522;DHT22;12680;57.804;12.190;2022-09-09T07:05:06;14.40;98.00
24522;DHT22;12680;57.804;12.190;2022-09-09T07:07:40;14.50;98.00
24522;DHT22;12680;57.804;12.190;2022-09-09T07:10:12;14.50;98.20
24522;DHT22;12680;57.804;12.190;2022-09-09T07:12:43;14.60;97.80
24522;DHT22;12680;57.804;12.190;2022-09-09T07:15:14;14.70;97.80
24522;DHT22;12680;57.804;12.190;2022-09-09T07:17:41;14.80;97.70
24522;DHT22;12680;57.804;12.190;2022-09-09T07:20:11;14.90;97.60
24522;DHT22;12680;57.804;12.190;2022-09-09T07:22:41;15.00;97.50
24522;DHT22;12680;57.804;12.190;2022-09-09T07:25:14;15.00;97.30
24522;DHT22;12680;57.804;12.190;2022-09-09T07:27:48;15.10;97.30
24522;DHT22;12680;57.804;12.190;2022-09-09T07:30:16;15.10;97.30
24522;DHT22;12680;57.804;12.190;2022-09-09T07:32:53;15.20;97.10
24522;DHT22;12680;57.804;12.190;2022-09-09T07:35:23;15.20;96.90
24522;DHT22;12680;57.804;12.190;2022-09-09T07:37:54;15.20;96.80
24522;DHT22;12680;57.804;12.190;2022-09-09T07:40:29;15.20;96.80
24522;DHT22;12680;57.804;12.190;2022-09-09T07:43:01;15.20;96.70
24522;DHT22;12680;57.804;12.190;2022-09-09T07:45:29;15.20;96.70
24522;DHT22;12680;57.804;12.190;2022-09-09T07:47:58;15.30;96.60
24522;DHT22;12680;57.804;12.190;2022-09-09T07:50:32;15.30;96.60
24522;DHT22;12680;57.804;12.190;2022-09-09T07:52:59;15.30;96.90
24522;DHT22;12680;57.804;12.190;2022-09-09T07:55:32;15.30;96.50
24522;DHT22;12680;57.804;12.190;2022-09-09T07:58:02;15.40;96.50
24522;DHT22;12680;57.804;12.190;2022-09-09T08:00:34;15.40;96.40
24522;DHT22;12680;57.804;12.190;2022-09-09T08:03:04;15.40;96.40
24522;DHT22;12680;57.804;12.190;2022-09-09T08:05:32;15.40;96.40
24522;DHT22;12680;57.804;12.190;2022-09-09T08:08:02;15.30;96.30
24522;DHT22;12680;57.804;12.190;2022-09-09T08:10:31;15.30;96.30
24522;DHT22;12680;57.804;12.190;2022-09-09T08:13:03;15.30;96.30
24522;DHT22;12680;57.804;12.190;2022-09-09T08:15:49;15.40;96.30
24522;DHT22;12680;57.804;12.190;2022-09-09T08:18:26;15.40;96.20
24522;DHT22;12680;57.804;12.190;2022-09-09T08:20:53;15.40;96.20
24522;DHT22;12680;57.804;12.190;2022-09-09T08:23:20;15.40;96.30
24522;DHT22;12680;57.804;12.190;2022-09-09T08:25:48;15.40;96.30
24522;DHT22;12680;57.804;12.190;2022-09-09T08:28:18;15.50;96.40
24522;DHT22;12680;57.804;12.190;2022-09-09T08:30:46;15.70;96.40
24522;DHT22;12680;57.804;12.190;2022-09-09T08:33:22;15.70;96.30
24522;DHT22;12680;57.804;12.190;2022-09-09T08:35:49;15.80;96.20
24522;DHT22;12680;57.804;12.190;2022-09-09T08:38:19;15.90;96.10
24522;DHT22;12680;57.804;12.190;2022-09-09T08:41:03;16.00;96.00
24522;DHT22;12680;57.804;12.190;2022-09-09T08:43:33;16.10;96.00
24522;DHT22;12680;57.804;12.190;2022-09-09T08:46:27;16.20;95.90
24522;DHT22;12680;57.804;12.190;2022-09-09T08:52:06;16.40;95.70
24522;DHT22;12680;57.804;12.190;2022-09-09T08:54:37;16.50;95.60
24522;DHT22;12680;57.804;12.190;2022-09-09T08:57:25;16.50;95.60
24522;DHT22;12680;57.804;12.190;2022-09-09T08:59:55;16.70;95.50
24522;DHT22;12680;57.804;12.190;2022-09-09T09:07:59;16.90;95.00
24522;DHT22;12680;57.804;12.190;2022-09-09T09:10:46;17.10;95.00
24522;DHT22;12680;57.804;12.190;2022-09-09T09:13:33;17.10;95.00
24522;DHT22;12680;57.804;12.190;2022-09-09T09:16:29;17.20;94.80
24522;DHT22;12680;57.804;12.190;2022-09-09T09:19:00;17.30;94.60
24522;DHT22;12680;57.804;12.190;2022-09-09T09:21:49;17.30;94.50
24522;DHT22;12680;57.804;12.190;2022-09-09T09:24:23;17.30;94.40
24522;DHT22;12680;57.804;12.190;2022-09-09T09:26:54;17.40;94.50
24522;DHT22;12680;57.804;12.190;2022-09-09T09:29:26;17.50;94.40
24522;DHT22;12680;57.804;12.190;2022-09-09T09:31:55;17.60;94.30
24522;DHT22;12680;57.804;12.190;2022-09-09T09:34:24;17.70;94.20
24522;DHT22;12680;57.804;12.190;2022-09-09T09:36:59;17.70;94.00
24522;DHT22;12680;57.804;12.190;2022-09-09T09:39:34;17.70;94.00
24522;DHT22;12680;57.804;12.190;2022-09-09T09:42:23;17.70;93.80
24522;DHT22;12680;57.804;12.190;2022-09-09T09:44:58;17.70;93.70
24522;DHT22;12680;57.804;12.190;2022-09-09T09:47:39;17.70;93.60
24522;DHT22;12680;57.804;12.190;2022-09-09T09:50:19;17.70;93.70
24522;DHT22;12680;57.804;12.190;2022-09-09T09:53:17;17.60;93.60
24522;DHT22;12680;57.804;12.190;2022-09-09T09:55:52;17.60;93.60
24522;DHT22;12680;57.804;12.190;2022-09-09T09:58:21;17.60;93.70
24522;DHT22;12680;57.804;12.190;2022-09-09T10:00:53;17.70;93.80
24522;DHT22;12680;57.804;12.190;2022-09-09T10:03:22;17.70;93.60
24522;DHT22;12680;57.804;12.190;2022-09-09T10:05:54;17.70;93.70
24522;DHT22;12680;57.804;12.190;2022-09-09T10:08:27;17.70;93.60
24522;DHT22;12680;57.804;12.190;2022-09-09T10:11:05;17.60;93.50
24522;DHT22;12680;57.804;12.190;2022-09-09T10:19:29;17.60;93.70
24522;DHT22;12680;57.804;12.190;2022-09-09T10:25:26;17.60;93.60
24522;DHT22;12680;57.804;12.190;2022-09-09T10:36:43;17.40;93.70
24522;DHT22;12680;57.804;12.190;2022-09-09T10:42:14;17.20;94.00
24522;DHT22;12680;57.804;12.190;2022-09-09T10:50:35;16.90;94.50
24522;DHT22;12680;57.804;12.190;2022-09-09T10:56:13;16.80;95.00
24522;DHT22;12680;57.804;12.190;2022-09-09T10:59:02;16.70;95.20
24522;DHT22;12680;57.804;12.190;2022-09-09T11:01:42;16.60;95.40
24522;DHT22;12680;57.804;12.190;2022-09-09T11:04:34;16.60;95.50
24522;DHT22;12680;57.804;12.190;2022-09-09T11:07:08;16.50;95.80
24522;DHT22;12680;57.804;12.190;2022-09-09T11:09:53;16.50;95.80
24522;DHT22;12680;57.804;12.190;2022-09-09T11:12:23;16.50;96.00
24522;DHT22;12680;57.804;12.190;2022-09-09T11:15:08;16.40;96.00
24522;DHT22;12680;57.804;12.190;2022-09-09T11:17:49;16.40;96.20
24522;DHT22;12680;57.804;12.190;2022-09-09T11:20:18;16.30;96.30
24522;DHT22;12680;57.804;12.190;2022-09-09T11:23:25;16.30;96.40
24522;DHT22;12680;57.804;12.190;2022-09-09T11:25:57;16.30;96.60
24522;DHT22;12680;57.804;12.190;2022-09-09T11:28:53;16.20;96.60
24522;DHT22;12680;57.804;12.190;2022-09-09T11:37:17;16.00;96.90
24522;DHT22;12680;57.804;12.190;2022-09-09T11:42:24;16.00;97.20
24522;DHT22;12680;57.804;12.190;2022-09-09T11:45:07;16.00;97.30
24522;DHT22;12680;57.804;12.190;2022-09-09T11:47:35;16.00;97.30
24522;DHT22;12680;57.804;12.190;2022-09-09T11:52:47;15.90;97.50
24522;DHT22;12680;57.804;12.190;2022-09-09T11:55:28;16.00;97.60
24522;DHT22;12680;57.804;12.190;2022-09-09T12:00:41;16.00;97.90
24522;DHT22;12680;57.804;12.190;2022-09-09T12:06:29;15.90;98.00
24522;DHT22;12680;57.804;12.190;2022-09-09T12:09:12;15.90;98.10
24522;DHT22;12680;57.804;12.190;2022-09-09T12:11:40;15.90;98.20
24522;DHT22;12680;57.804;12.190;2022-09-09T12:14:34;15.90;98.20
24522;DHT22;12680;57.804;12.190;2022-09-09T12:17:19;15.80;98.30
24522;DHT22;12680;57.804;12.190;2022-09-09T12:19:48;15.80;98.40
24522;DHT22;12680;57.804;12.190;2022-09-09T12:25:28;15.80;98.50
24522;DHT22;12680;57.804;12.190;2022-09-09T12:30:53;15.80;98.70
24522;DHT22;12680;57.804;12.190;2022-09-09T12:33:22;15.80;98.80
24522;DHT22;12680;57.804;12.190;2022-09-09T12:35:58;15.70;98.70
24522;DHT22;12680;57.804;12.190;2022-09-09T12:38:45;15.80;98.90
24522;DHT22;12680;57.804;12.190;2022-09-09T12:41:25;15.80;99.10
24522;DHT22;12680;57.804;12.190;2022-09-09T12:44:10;15.80;99.00
24522;DHT22;12680;57.804;12.190;2022-09-09T12:46:41;15.80;99.10
24522;DHT22;12680;57.804;12.190;2022-09-09T12:49:37;15.80;99.10
24522;DHT22;12680;57.804;12.190;2022-09-09T12:52:35;15.80;99.20
24522;DHT22;12680;57.804;12.190;2022-09-09T12:55:20;15.80;99.30
24522;DHT22;12680;57.804;12.190;2022-09-09T12:57:49;15.80;99.30
24522;DHT22;12680;57.804;12.190;2022-09-09T13:00:22;15.80;99.20
24522;DHT22;12680;57.804;12.190;2022-09-09T13:02:55;15.80;99.30
24522;DHT22;12680;57.804;12.190;2022-09-09T13:05:24;15.80;99.40
24522;DHT22;12680;57.804;12.190;2022-09-09T13:08:02;15.80;99.70
24522;DHT22;12680;57.804;12.190;2022-09-09T13:10:37;15.80;99.50
24522;DHT22;12680;57.804;12.190;2022-09-09T13:13:36;15.80;99.60
24522;DHT22;12680;57.804;12.190;2022-09-09T13:16:16;15.80;99.50
24522;DHT22;12680;57.804;12.190;2022-09-09T13:18:45;15.80;99.60
24522;DHT22;12680;57.804;12.190;2022-09-09T13:21:15;15.80;99.70
24522;DHT22;12680;57.804;12.190;2022-09-09T13:23:55;15.80;99.70
24522;DHT22;12680;57.804;12.190;2022-09-09T13:26:26;15.80;99.90
24522;DHT22;12680;57.804;12.190;2022-09-09T13:28:54;15.80;99.90
24522;DHT22;12680;57.804;12.190;2022-09-09T13:31:30;15.80;99.90
24522;DHT22;12680;57.804;12.190;2022-09-09T13:34:13;15.80;99.90
24522;DHT22;12680;57.804;12.190;2022-09-09T13:36:46;15.70;99.90
24522;DHT22;12680;57.804;12.190;2022-09-09T13:39:18;15.70;99.90
24522;DHT22;12680;57.804;12.190;2022-09-09T13:41:47;15.70;99.90
24522;DHT22;12680;57.804;12.190;2022-09-09T13:44:31;15.70;99.90
24522;DHT22;12680;57.804;12.190;2022-09-09T13:47:15;15.60;99.90
24522;DHT22;12680;57.804;12.190;2022-09-09T13:49:47;15.60;99.90
24522;DHT22;12680;57.804;12.190;2022-09-09T13:52:18;15.60;99.90
24522;DHT22;12680;57.804;12.190;2022-09-09T13:54:51;15.60;99.90
24522;DHT22;12680;57.804;12.190;2022-09-09T13:57:21;15.60;99.90
24522;DHT22;12680;57.804;12.190;2022-09-09T13:59:55;15.60;99.90
24522;DHT22;12680;57.804;12.190;2022-09-09T14:02:33;15.60;99.90
24522;DHT22;12680;57.804;12.190;2022-09-09T14:05:00;15.60;99.90
24522;DHT22;12680;57.804;12.190;2022-09-09T14:07:29;15.60;99.90
24522;DHT22;12680;57.804;12.190;2022-09-09T14:09:56;15.60;99.90
24522;DHT22;12680;57.804;12.190;2022-09-09T14:12:24;15.60;99.90
24522;DHT22;12680;57.804;12.190;2022-09-09T14:14:51;15.60;99.90
24522;DHT22;12680;57.804;12.190;2022-09-09T14:17:22;15.60;99.90
24522;DHT22;12680;57.804;12.190;2022-09-09T14:20:01;15.60;99.90
24522;DHT22;12680;57.804;12.190;2022-09-09T14:22:28;15.60;99.90
24522;DHT22;12680;57.804;12.190;2022-09-09T14:24:57;15.60;99.90
24522;DHT22;12680;57.804;12.190;2022-09-09T14:27:28;15.60;99.90
24522;DHT22;12680;57.804;12.190;2022-09-09T14:29:57;15.50;99.90
24522;DHT22;12680;57.804;12.190;2022-09-09T14:32:27;15.50;99.90
24522;DHT22;12680;57.804;12.190;2022-09-09T14:34:57;15.50;99.90
24522;DHT22;12680;57.804;12.190;2022-09-09T14:37:25;15.50;99.90
24522;DHT22;12680;57.804;12.190;2022-09-09T14:39:52;15.50;99.90
24522;DHT22;12680;57.804;12.190;2022-09-09T14:42:24;15.50;99.90
24522;DHT22;12680;57.804;12.190;2022-09-09T14:44:52;15.50;99.90
24522;DHT22;12680;57.804;12.190;2022-09-09T14:47:22;15.50;99.90
24522;DHT22;12680;57.804;12.190;2022-09-09T14:49:49;15.50;99.90
24522;DHT22;12680;57.804;12.190;2022-09-09T14:52:18;15.50;99.90
24522;DHT22;12680;57.804;12.190;2022-09-09T14:54:45;15.50;99.90
24522;DHT22;12680;57.804;12.190;2022-09-09T14:57:13;15.50;99.90
24522;DHT22;12680;57.804;12.190;2022-09-09T14:59:40;15.40;99.90
24522;DHT22;12680;57.804;12.190;2022-09-09T15:02:09;15.40;99.90
24522;DHT22;12680;57.804;12.190;2022-09-09T15:04:42;15.40;99.90
24522;DHT22;12680;57.804;12.190;2022-09-09T15:07:12;15.40;99.90
24522;DHT22;12680;57.804;12.190;2022-09-09T15:09:43;15.40;99.90
24522;DHT22;12680;57.804;12.190;2022-09-09T15:12:15;15.40;99.90
24522;DHT22;12680;57.804;12.190;2022-09-09T15:14:46;15.40;99.90
24522;DHT22;12680;57.804;12.190;2022-09-09T15:17:14;15.40;99.90
24522;DHT22;12680;57.804;12.190;2022-09-09T15:19:42;15.40;99.90
24522;DHT22;12680;57.804;12.190;2022-09-09T15:22:17;15.40;99.90
24522;DHT22;12680;57.804;12.190;2022-09-09T15:24:50;15.40;99.90
24522;DHT22;12680;57.804;12.190;2022-09-09T15:27:17;15.30;99.90
24522;DHT22;12680;57.804;12.190;2022-09-09T15:29:45;15.40;99.90
24522;DHT22;12680;57.804;12.190;2022-09-09T15:32:13;15.40;99.90
24522;DHT22;12680;57.804;12.190;2022-09-09T15:34:41;15.40;99.90
24522;DHT22;12680;57.804;12.190;2022-09-09T15:37:13;15.40;99.90
24522;DHT22;12680;57.804;12.190;2022-09-09T15:39:42;15.50;99.90
24522;DHT22;12680;57.804;12.190;2022-09-09T15:42:10;15.50;99.90
24522;DHT22;12680;57.804;12.190;2022-09-09T15:44:39;15.50;99.90
24522;DHT22;12680;57.804;12.190;2022-09-09T15:47:11;15.50;99.90
24522;DHT22;12680;57.804;12.190;2022-09-09T15:49:39;15.50;99.90
24522;DHT22;12680;57.804;12.190;2022-09-09T15:52:10;15.50;99.90
24522;DHT22;12680;57.804;12.190;2022-09-09T15:54:38;15.40;99.90
24522;DHT22;12680;57.804;12.190;2022-09-09T15:57:07;15.40;99.90
24522;DHT22;12680;57.804;12.190;2022-09-09T15:59:35;15.40;99.90
24522;DHT22;12680;57.804;12.190;2022-09-09T16:02:06;15.40;99.90
24522;DHT22;12680;57.804;12.190;2022-09-09T16:04:34;15.40;99.90
24522;DHT22;12680;57.804;12.190;2022-09-09T16:07:06;15.40;99.90
24522;DHT22;12680;57.804;12.190;2022-09-09T16:09:33;15.40;99.90
24522;DHT22;12680;57.804;12.190;2022-09-09T16:12:03;15.50;99.90
24522;DHT22;12680;57.804;12.190;2022-09-09T16:14:39;15.40;99.90
24522;DHT22;12680;57.804;12.190;2022-09-09T16:17:06;15.50;99.90
24522;DHT22;12680;57.804;12.190;2022-09-09T16:19:38;15.50;99.90
24522;DHT22;12680;57.804;12.190;2022-09-09T16:22:05;15.50;99.90
24522;DHT22;12680;57.804;12.190;2022-09-09T16:24:33;15.50;99.90
24522;DHT22;12680;57.804;12.190;2022-09-09T16:27:01;15.50;99.90
24522;DHT22;12680;57.804;12.190;2022-09-09T16:29:31;15.50;99.90
24522;DHT22;12680;57.804;12.190;2022-09-09T16:32:00;15.50;99.90
24522;DHT22;12680;57.804;12.190;2022-09-09T16:34:30;15.50;99.90
24522;DHT22;12680;57.804;12.190;2022-09-09T16:36:58;15.40;99.90
24522;DHT22;12680;57.804;12.190;2022-09-09T16:39:27;15.50;99.90
24522;DHT22;12680;57.804;12.190;2022-09-09T16:41:54;15.50;99.90
24522;DHT22;12680;57.804;12.190;2022-09-09T16:44:25;15.40;99.90
24522;DHT22;12680;57.804;12.190;2022-09-09T16:46:53;15.40;99.90
24522;DHT22;12680;57.804;12.190;2022-09-09T16:49:27;15.40;99.90
24522;DHT22;12680;57.804;12.190;2022-09-09T16:51:57;15.40;99.90
24522;DHT22;12680;57.804;12.190;2022-09-09T16:54:25;15.30;99.90
24522;DHT22;12680;57.804;12.190;2022-09-09T16:56:56;15.30;99.90
24522;DHT22;12680;57.804;12.190;2022-09-09T16:59:24;15.30;99.90
24522;DHT22;12680;57.804;12.190;2022-09-09T17:01:59;15.40;99.90
24522;DHT22;12680;57.804;12.190;2022-09-09T17:04:32;15.30;99.90
24522;DHT22;12680;57.804;12.190;2022-09-09T17:07:04;15.30;99.90
24522;DHT22;12680;57.804;12.190;2022-09-09T17:09:35;15.30;99.90
24522;DHT22;12680;57.804;12.190;2022-09-09T17:12:04;15.30;99.90
24522;DHT22;12680;57.804;12.190;2022-09-09T17:14:35;15.30;99.90
24522;DHT22;12680;57.804;12.190;2022-09-09T17:17:06;15.30;99.90
24522;DHT22;12680;57.804;12.190;2022-09-09T17:20:01;15.30;99.90
24522;DHT22;12680;57.804;12.190;2022-09-09T17:22:39;15.30;99.90
24522;DHT22;12680;57.804;12.190;2022-09-09T17:25:14;15.30;99.90
24522;DHT22;12680;57.804;12.190;2022-09-09T17:27:48;15.30;99.90
24522;DHT22;12680;57.804;12.190;2022-09-09T17:30:17;15.30;99.90
24522;DHT22;12680;57.804;12.190;2022-09-09T17:32:48;15.30;99.90
24522;DHT22;12680;57.804;12.190;2022-09-09T17:35:22;15.30;99.90
24522;DHT22;12680;57.804;12.190;2022-09-09T17:37:52;15.30;99.90